TimeMST,TemperatureF,Dew PointF,Humidity,Sea Level PressureIn,VisibilityMPH,Wind Direction,Wind SpeedMPH,Gust SpeedMPH,PrecipitationIn,Events,Conditions,WindDirDegrees,DateUTC
12:15 AM,35.6,1.4,24,30.39,10.0,ENE,4.6,-,N/A,,Clear,60,2014-01-17 07:15:00
12:35 AM,35.6,1.4,24,30.39,10.0,NE,8.1,-,N/A,,Clear,50,2014-01-17 07:35:00
12:55 AM,37.4,3.2,24,30.38,10.0,NNE,10.4,-,N/A,,Clear,30,2014-01-17 07:55:00
1:15 AM,39.2,3.2,22,30.38,10.0,NNE,10.4,-,N/A,,Clear,30,2014-01-17 08:15:00
1:35 AM,37.4,3.2,24,30.38,10.0,NE,10.4,-,N/A,,Clear,50,2014-01-17 08:35:00
1:55 AM,39.2,3.2,22,30.38,10.0,NE,8.1,-,N/A,,Clear,40,2014-01-17 08:55:00
2:15 AM,37.4,3.2,24,30.38,10.0,NE,8.1,-,N/A,,Clear,40,2014-01-17 09:15:00
2:35 AM,37.4,5.0,26,30.38,10.0,NE,10.4,-,N/A,,Clear,50,2014-01-17 09:35:00
2:55 AM,35.6,5.0,28,30.39,10.0,NE,9.2,-,N/A,,Clear,40,2014-01-17 09:55:00
3:15 AM,35.6,5.0,28,30.39,10.0,NE,9.2,-,N/A,,Clear,50,2014-01-17 10:15:00
3:35 AM,32.0,5.0,32,30.38,10.0,NE,6.9,-,N/A,,Clear,50,2014-01-17 10:35:00
3:55 AM,35.6,6.8,30,30.37,10.0,ENE,8.1,-,N/A,,Clear,60,2014-01-17 10:55:00
4:15 AM,32.0,6.8,35,30.38,10.0,ENE,5.8,-,N/A,,Clear,60,2014-01-17 11:15:00
4:35 AM,32.0,6.8,35,30.38,10.0,Calm,Calm,-,N/A,,Clear,0,2014-01-17 11:35:00
4:55 AM,35.6,5.0,28,30.38,10.0,Calm,Calm,-,N/A,,Clear,0,2014-01-17 11:55:00
5:15 AM,32.0,6.8,35,30.38,10.0,NE,6.9,-,N/A,,Clear,50,2014-01-17 12:15:00
5:35 AM,32.0,6.8,35,30.38,10.0,NE,3.5,-,N/A,,Clear,50,2014-01-17 12:35:00
5:55 AM,32.0,6.8,35,30.38,10.0,Calm,Calm,-,N/A,,Clear,0,2014-01-17 12:55:00
6:15 AM,33.8,5.0,30,30.38,10.0,NNW,3.5,-,N/A,,Clear,330,2014-01-17 13:15:00
6:35 AM,33.8,5.0,30,30.38,10.0,NNE,3.5,-,N/A,,Clear,20,2014-01-17 13:35:00
6:55 AM,28.4,6.8,40,30.39,10.0,Calm,Calm,-,N/A,,Clear,0,2014-01-17 13:55:00
7:15 AM,24.8,6.8,46,30.39,10.0,SE,5.8,-,N/A,,Clear,140,2014-01-17 14:15:00
7:35 AM,23.0,8.6,54,30.40,10.0,SE,4.6,-,N/A,,Clear,130,2014-01-17 14:35:00
7:55 AM,23.0,8.6,54,30.41,10.0,SE,6.9,-,N/A,,Clear,140,2014-01-17 14:55:00
8:15 AM,24.8,8.6,50,30.41,10.0,SSE,5.8,-,N/A,,Clear,150,2014-01-17 15:15:00
8:35 AM,24.8,10.4,54,30.41,10.0,South,5.8,-,N/A,,Clear,170,2014-01-17 15:35:00
8:55 AM,32.0,12.2,44,30.41,10.0,Calm,Calm,-,N/A,,Clear,0,2014-01-17 15:55:00
9:15 AM,39.2,6.8,26,30.41,10.0,Calm,Calm,-,N/A,,Clear,0,2014-01-17 16:15:00
9:35 AM,41.0,6.8,24,30.42,10.0,Calm,Calm,-,N/A,,Clear,0,2014-01-17 16:35:00
9:55 AM,42.8,6.8,23,30.43,10.0,East,3.5,-,N/A,,Clear,100,2014-01-17 16:55:00
10:15 AM,46.4,6.8,20,30.43,10.0,East,4.6,-,N/A,,Clear,90,2014-01-17 17:15:00
10:35 AM,48.2,5.0,17,30.43,10.0,East,5.8,-,N/A,,Clear,80,2014-01-17 17:35:00
10:55 AM,50.0,1.4,14,30.43,10.0,NE,8.1,-,N/A,,Clear,40,2014-01-17 17:55:00
11:15 AM,51.8,1.4,13,30.42,10.0,NNE,10.4,-,N/A,,Clear,30,2014-01-17 18:15:00
11:35 AM,51.8,1.4,13,30.41,10.0,ENE,9.2,-,N/A,,Clear,60,2014-01-17 18:35:00
11:55 AM,53.6,3.2,13,30.40,10.0,North,9.2,-,N/A,,Clear,10,2014-01-17 18:55:00
12:15 PM,53.6,3.2,13,30.38,10.0,NNE,8.1,-,N/A,,Clear,30,2014-01-17 19:15:00
12:35 PM,53.6,3.2,13,30.37,10.0,North,9.2,-,N/A,,Clear,360,2014-01-17 19:35:00
12:55 PM,55.4,3.2,12,30.36,10.0,NNE,9.2,-,N/A,,Clear,20,2014-01-17 19:55:00
1:15 PM,55.4,5.0,13,30.36,10.0,NNW,6.9,-,N/A,,Clear,340,2014-01-17 20:15:00
1:35 PM,55.4,5.0,13,30.35,10.0,North,8.1,-,N/A,,Clear,350,2014-01-17 20:35:00
1:55 PM,55.4,5.0,13,30.34,10.0,NNW,8.1,-,N/A,,Clear,330,2014-01-17 20:55:00
2:15 PM,55.4,3.2,12,30.33,10.0,North,10.4,-,N/A,,Clear,360,2014-01-17 21:15:00
2:35 PM,55.4,3.2,12,30.33,10.0,NNE,6.9,-,N/A,,Clear,20,2014-01-17 21:35:00
2:55 PM,55.4,3.2,12,30.33,10.0,North,8.1,-,N/A,,Clear,360,2014-01-17 21:55:00
3:15 PM,55.4,5.0,13,30.33,10.0,North,9.2,-,N/A,,Clear,360,2014-01-17 22:15:00
3:35 PM,55.4,5.0,13,30.33,10.0,North,9.2,-,N/A,,Clear,360,2014-01-17 22:35:00
3:55 PM,55.4,5.0,13,30.33,10.0,North,9.2,-,N/A,,Clear,360,2014-01-17 22:55:00
4:15 PM,55.4,5.0,13,30.33,10.0,North,5.8,-,N/A,,Clear,10,2014-01-17 23:15:00
4:35 PM,53.6,5.0,14,30.33,10.0,NE,4.6,-,N/A,,Clear,40,2014-01-17 23:35:00
4:55 PM,53.6,5.0,14,30.33,10.0,NNE,4.6,-,N/A,,Clear,30,2014-01-17 23:55:00
5:15 PM,51.8,5.0,15,30.33,10.0,North,4.6,-,N/A,,Clear,10,2014-01-18 00:15:00
5:35 PM,48.2,5.0,17,30.33,10.0,NNE,4.6,-,N/A,,Clear,30,2014-01-18 00:35:00
5:55 PM,48.2,6.8,19,30.33,10.0,NE,4.6,-,N/A,,Clear,40,2014-01-18 00:55:00
6:15 PM,48.2,6.8,19,30.33,10.0,NNE,3.5,-,N/A,,Clear,30,2014-01-18 01:15:00
6:35 PM,46.4,6.8,20,30.33,10.0,NNE,4.6,-,N/A,,Clear,30,2014-01-18 01:35:00
6:55 PM,39.2,6.8,26,30.33,10.0,Calm,Calm,-,N/A,,Clear,0,2014-01-18 01:55:00
7:15 PM,35.6,8.6,33,30.33,10.0,Calm,Calm,-,N/A,,Clear,0,2014-01-18 02:15:00
7:35 PM,32.0,10.4,41,30.33,10.0,SSE,8.1,-,N/A,,Clear,150,2014-01-18 02:35:00
7:55 PM,32.0,10.4,41,30.33,10.0,SSE,8.1,-,N/A,,Clear,150,2014-01-18 02:55:00
8:15 PM,30.2,10.4,44,30.33,10.0,SSE,6.9,-,N/A,,Clear,150,2014-01-18 03:15:00
8:35 PM,30.2,10.4,44,30.33,10.0,SSE,9.2,-,N/A,,Clear,150,2014-01-18 03:35:00
8:55 PM,30.2,10.4,44,30.33,10.0,SSE,10.4,-,N/A,,Clear,150,2014-01-18 03:55:00
9:15 PM,30.2,10.4,44,30.33,10.0,South,6.9,-,N/A,,Clear,170,2014-01-18 04:15:00
9:35 PM,28.4,10.4,47,30.33,10.0,SSE,9.2,-,N/A,,Clear,150,2014-01-18 04:35:00
9:55 PM,26.6,10.4,51,30.34,10.0,SSE,8.1,-,N/A,,Clear,150,2014-01-18 04:55:00
10:15 PM,26.6,10.4,51,30.34,10.0,SSE,6.9,-,N/A,,Clear,150,2014-01-18 05:15:00
10:35 PM,26.6,12.2,55,30.34,10.0,SE,6.9,-,N/A,,Clear,140,2014-01-18 05:35:00
10:55 PM,26.6,12.2,55,30.34,10.0,SSE,9.2,-,N/A,,Clear,150,2014-01-18 05:55:00
11:15 PM,26.6,12.2,55,30.34,10.0,SSE,8.1,-,N/A,,Clear,150,2014-01-18 06:15:00
11:35 PM,26.6,12.2,55,30.34,10.0,SSE,9.2,-,N/A,,Clear,150,2014-01-18 06:35:00
11:55 PM,24.8,12.2,59,30.34,10.0,SSE,9.2,-,N/A,,Clear,150,2014-01-18 06:55:00